Time;durP1;ratioP1;P1;durP2;ratioP2;P2;SDS_P1;SDS_P2;PMS_P1;PMS_P2;Temp;Humidity;BMP_temperature;BMP_pressure;BME280_temperature;BME280_humidity;BME280_pressure;Samples;Min_cycle;Max_cycle;Signal;HPM_P1;HPM_P2
2021/12/22 00:01:36;;;;;;;15.15;9.00;;;-1.70;99.90;;;;;;4873757;29;20048;-89
2021/12/22 00:04:56;;;;;;;;;;;;;;;;;;;;;
2021/12/22 00:07:57;;;;;;;12.98;8.43;;;-1.70;99.90;;;;;;4871278;29;20050;-89
2021/12/22 00:11:14;;;;;;;;;;;;;;;;;;;;;
2021/12/22 00:17:42;;;;;;;;;;;;;;;;;;;;;
2021/12/22 00:33:47;;;;;;;14.10;8.68;;;-1.90;99.90;;;;;;4833300;29;20074;-88
2021/12/22 00:36:42;;;;;;;;;;;;;;;;;;;;;
2021/12/22 00:39:20;;;;;;;17.17;9.35;;;-1.90;99.90;;;;;;4849586;29;20592;-88
2021/12/22 00:41:54;;;;;;;16.70;9.35;;;-1.90;99.90;;;;;;4866147;29;20033;-88
2021/12/22 00:44:33;;;;;;;16.15;9.27;;;-1.90;99.90;;;;;;4883730;29;20076;-87
2021/12/22 00:47:10;;;;;;;16.83;9.30;;;-1.90;99.90;;;;;;4902483;29;20022;-87
2021/12/22 00:49:49;;;;;;;16.73;10.05;;;-1.90;99.90;;;;;;4899466;29;20036;-86
2021/12/22 00:52:32;;;;;;;;;;;;;;;;;;;;;
2021/12/22 00:54:58;;;;;;;14.93;9.43;;;-1.90;99.90;;;;;;4902345;23;20147;-88
2021/12/22 00:57:24;;;;;;;13.27;8.70;;;-2.00;99.90;;;;;;4902523;29;20060;-89
2021/12/22 00:59:52;;;;;;;16.10;9.93;;;-2.00;99.90;;;;;;4900044;29;20020;-90
2021/12/22 01:02:19;;;;;;;17.58;9.82;;;-2.00;99.90;;;;;;4899240;29;20116;-89
2021/12/22 01:04:45;;;;;;;17.55;9.65;;;-2.00;99.90;;;;;;4901238;29;20036;-88
2021/12/22 01:07:11;;;;;;;15.43;9.50;;;-2.00;99.90;;;;;;4899601;29;20020;-91
2021/12/22 01:09:37;;;;;;;15.13;9.63;;;-2.10;99.90;;;;;;4897932;29;20028;-90
2021/12/22 01:12:04;;;;;;;16.50;9.48;;;-2.00;99.90;;;;;;4900527;29;20060;-90
2021/12/22 01:14:31;;;;;;;15.20;9.55;;;-2.10;99.90;;;;;;4901265;29;20033;-91
2021/12/22 01:17:01;;;;;;;17.70;10.38;;;-2.00;99.90;;;;;;4899163;29;20035;-89
2021/12/22 01:19:39;;;;;;;17.15;10.30;;;-2.00;99.90;;;;;;4899620;29;20152;-91
2021/12/22 01:22:19;;;;;;;16.77;9.02;;;-2.10;99.90;;;;;;4900052;29;20052;-92
2021/12/22 01:24:49;;;;;;;18.33;10.52;;;-2.00;99.90;;;;;;4899097;29;20029;-90
2021/12/22 01:27:19;;;;;;;16.35;9.93;;;-2.00;99.90;;;;;;4899430;29;20020;-89
2021/12/22 01:29:45;;;;;;;15.68;9.63;;;-2.10;99.90;;;;;;4899404;29;20060;-89
2021/12/22 01:32:13;;;;;;;18.48;10.13;;;-2.10;99.90;;;;;;4903478;29;20081;-89
2021/12/22 01:34:38;;;;;;;18.52;10.63;;;-2.10;99.90;;;;;;4902585;29;20028;-88
2021/12/22 01:37:04;;;;;;;17.60;9.85;;;-2.10;99.90;;;;;;4906930;29;20072;-90
2021/12/22 01:39:30;;;;;;;18.52;10.95;;;-2.10;99.90;;;;;;4906001;29;20033;-90
2021/12/22 01:41:56;;;;;;;17.65;9.57;;;-2.10;99.90;;;;;;4910224;29;20028;-92
2021/12/22 01:50:16;;;;;;;16.50;10.15;;;-2.10;99.90;;;;;;4912684;29;20083;-92
2021/12/22 01:52:42;;;;;;;17.60;10.05;;;-2.10;99.90;;;;;;4912489;29;20471;-93
2021/12/22 01:55:31;;;;;;;17.27;9.88;;;-2.10;99.90;;;;;;4908155;29;20088;-90
2021/12/22 01:58:00;;;;;;;18.30;9.77;;;-2.20;99.90;;;;;;4907656;29;20092;-92
2021/12/22 02:00:28;;;;;;;18.40;10.38;;;-2.20;99.90;;;;;;4913576;29;20025;-90
2021/12/22 02:02:55;;;;;;;18.30;10.65;;;-2.20;99.90;;;;;;4891630;29;20057;-92
2021/12/22 02:05:21;;;;;;;20.65;11.30;;;-2.20;99.90;;;;;;4905104;29;20035;-89
2021/12/22 02:07:49;;;;;;;16.77;10.45;;;-2.20;99.90;;;;;;4902454;29;20124;-90
2021/12/22 02:10:36;;;;;;;17.75;10.93;;;-2.20;99.90;;;;;;4901973;29;20022;-91
2021/12/22 02:13:03;;;;;;;17.75;9.75;;;-2.20;99.90;;;;;;4901928;29;20016;-90
2021/12/22 02:15:34;;;;;;;18.60;10.07;;;-2.20;99.90;;;;;;4901218;29;20028;-91
2021/12/22 02:18:03;;;;;;;20.25;11.73;;;-2.20;99.90;;;;;;4902617;29;20032;-91
2021/12/22 02:20:29;;;;;;;17.05;10.10;;;-2.20;99.90;;;;;;4900308;29;20025;-88
2021/12/22 02:22:56;;;;;;;17.08;9.65;;;-2.20;99.90;;;;;;4900674;29;20032;-90
2021/12/22 02:25:34;;;;;;;16.80;10.30;;;-2.30;99.90;;;;;;4900465;29;20036;-90
2021/12/22 02:28:02;;;;;;;17.10;10.05;;;-2.30;99.90;;;;;;4901056;29;20112;-89
2021/12/22 02:30:29;;;;;;;16.20;9.57;;;-2.30;99.90;;;;;;4900545;29;20120;-91
2021/12/22 02:38:07;;;;;;;19.95;11.02;;;-2.30;99.90;;;;;;4909408;29;20036;-87
2021/12/22 02:40:33;;;;;;;17.45;10.15;;;-2.30;99.90;;;;;;4909394;29;20032;-88
2021/12/22 02:43:05;;;;;;;16.35;10.70;;;-2.30;99.90;;;;;;4907132;29;20035;-85
2021/12/22 02:45:33;;;;;;;17.80;10.13;;;-2.40;99.90;;;;;;4903532;29;20036;-87
2021/12/22 02:48:00;;;;;;;19.55;10.50;;;-2.40;99.90;;;;;;4894288;29;20435;-87
2021/12/22 02:50:26;;;;;;;20.30;10.85;;;-2.40;99.90;;;;;;4905446;29;20021;-87
2021/12/22 02:53:07;;;;;;;17.83;10.35;;;-2.40;99.90;;;;;;4906554;29;20491;-88
2021/12/22 02:55:50;;;;;;;17.77;10.73;;;-2.40;99.90;;;;;;4904196;29;20053;-91
2021/12/22 02:59:15;;;;;;;19.55;11.13;;;-2.40;99.90;;;;;;4901311;29;20033;-91
2021/12/22 03:03:58;;;;;;;17.40;10.02;;;-2.50;99.90;;;;;;4903017;29;20065;-90
2021/12/22 03:09:00;;;;;;;16.25;9.68;;;-2.50;99.90;;;;;;4901969;29;20036;-90
2021/12/22 03:11:27;;;;;;;17.80;10.30;;;-2.50;99.90;;;;;;4900851;29;20111;-90
2021/12/22 03:13:52;;;;;;;17.33;10.05;;;-2.50;99.90;;;;;;4901339;29;20031;-91
2021/12/22 03:16:18;;;;;;;18.17;10.20;;;-2.50;99.90;;;;;;4899322;29;20052;-91
2021/12/22 03:18:45;;;;;;;19.65;11.07;;;-2.50;99.90;;;;;;4900537;29;20032;-91
2021/12/22 03:21:21;;;;;;;18.02;9.48;;;-2.50;99.90;;;;;;4900266;29;20063;-92
2021/12/22 03:23:49;;;;;;;18.30;10.63;;;-2.60;99.90;;;;;;4912586;29;20017;-91
2021/12/22 03:26:17;;;;;;;18.30;11.43;;;-2.60;99.90;;;;;;4912044;29;20020;-88
2021/12/22 03:28:47;;;;;;;17.90;9.93;;;-2.60;99.90;;;;;;4909892;29;20084;-86
2021/12/22 03:31:14;;;;;;;19.88;11.07;;;-2.60;99.90;;;;;;4910177;29;20080;-88
2021/12/22 03:33:40;;;;;;;18.52;10.00;;;-2.60;99.90;;;;;;4905673;29;20035;-86
2021/12/22 03:36:06;;;;;;;18.35;10.80;;;-2.60;99.90;;;;;;4915373;29;20068;-90
2021/12/22 03:38:33;;;;;;;16.55;9.57;;;-2.60;99.90;;;;;;4920716;29;20059;-90
2021/12/22 03:40:59;;;;;;;19.30;11.25;;;-2.60;99.90;;;;;;4922182;29;20027;-88
2021/12/22 03:43:25;;;;;;;18.42;10.48;;;-2.70;99.90;;;;;;4921869;29;20041;-86
2021/12/22 03:45:51;;;;;;;19.98;10.95;;;-2.60;99.90;;;;;;4917116;29;20017;-88
2021/12/22 03:48:18;;;;;;;22.70;12.82;;;-2.70;99.90;;;;;;4916004;29;20028;-87
2021/12/22 03:50:44;;;;;;;21.98;11.75;;;-2.70;99.90;;;;;;4917782;29;20027;-90
2021/12/22 03:53:11;;;;;;;21.15;11.05;;;-2.70;99.90;;;;;;4904928;29;20037;-88
2021/12/22 03:55:37;;;;;;;21.50;10.80;;;-2.80;99.90;;;;;;4904500;29;20048;-89
2021/12/22 03:58:06;;;;;;;20.13;11.25;;;-2.80;99.90;;;;;;4902091;29;20040;-91
2021/12/22 04:00:33;;;;;;;20.83;11.57;;;-2.80;99.90;;;;;;4903856;29;20025;-90
2021/12/22 04:02:59;;;;;;;20.00;11.10;;;-2.80;99.90;;;;;;4905039;29;20475;-89
2021/12/22 04:05:24;;;;;;;18.30;10.68;;;-2.80;99.90;;;;;;4903939;29;20025;-90
2021/12/22 04:07:50;;;;;;;21.83;12.23;;;-2.80;99.90;;;;;;4903389;29;20036;-90
2021/12/22 04:10:20;;;;;;;21.35;11.65;;;-2.80;99.90;;;;;;4903510;29;20024;-90
2021/12/22 04:12:55;;;;;;;18.90;10.30;;;-2.80;99.90;;;;;;4903279;29;20036;-90
2021/12/22 04:15:23;;;;;;;22.35;12.27;;;-2.80;99.90;;;;;;4908164;29;20040;-89
2021/12/22 04:17:49;;;;;;;20.48;11.40;;;-2.90;99.90;;;;;;4912269;29;20036;-89
2021/12/22 04:20:15;;;;;;;22.90;12.52;;;-2.90;99.90;;;;;;4905839;29;20056;-90
2021/12/22 04:22:41;;;;;;;23.75;12.95;;;-2.90;99.90;;;;;;4906713;29;20024;-89
2021/12/22 04:25:09;;;;;;;22.80;12.30;;;-2.90;99.90;;;;;;4905025;29;20044;-91
2021/12/22 04:27:36;;;;;;;20.58;11.18;;;-2.90;99.90;;;;;;4903163;29;20035;-90
2021/12/22 04:30:03;;;;;;;21.48;11.85;;;-2.80;99.90;;;;;;4903154;29;20040;-91
2021/12/22 04:32:28;;;;;;;18.52;9.93;;;-2.70;99.90;;;;;;4903173;29;20096;-91
2021/12/22 04:34:54;;;;;;;20.00;10.85;;;-2.80;99.90;;;;;;4903034;29;20064;-90
2021/12/22 04:37:19;;;;;;;20.02;10.65;;;-2.80;99.90;;;;;;4902958;29;20017;-90
2021/12/22 04:39:45;;;;;;;16.80;10.20;;;-2.80;99.90;;;;;;4903325;29;20036;-90
2021/12/22 04:42:11;;;;;;;21.17;11.60;;;-2.80;99.90;;;;;;4903178;29;20376;-90
2021/12/22 04:44:37;;;;;;;19.30;11.75;;;-2.90;99.90;;;;;;4904038;29;20116;-89
2021/12/22 04:47:04;;;;;;;20.05;11.38;;;-2.90;99.90;;;;;;4905585;29;20029;-87
2021/12/22 04:49:29;;;;;;;22.85;11.95;;;-2.90;99.90;;;;;;4907671;29;20097;-88
2021/12/22 04:51:56;;;;;;;19.77;11.57;;;-2.90;99.90;;;;;;4905590;29;20087;-90
2021/12/22 04:56:54;;;;;;;20.75;11.13;;;-3.00;99.90;;;;;;4915680;29;20033;-88
2021/12/22 04:59:21;;;;;;;20.98;9.90;;;-3.00;99.90;;;;;;4915420;29;20044;-89
2021/12/22 05:01:46;;;;;;;17.90;10.00;;;-2.90;99.90;;;;;;4915007;29;20024;-89
2021/12/22 05:04:13;;;;;;;19.85;10.75;;;-3.00;99.90;;;;;;4909422;29;20120;-90
2021/12/22 05:06:39;;;;;;;18.38;10.68;;;-2.90;99.90;;;;;;4904091;29;20048;-89
2021/12/22 05:09:06;;;;;;;20.15;10.50;;;-2.90;99.90;;;;;;4904747;29;20029;-91
2021/12/22 05:11:33;;;;;;;19.88;10.93;;;-3.00;99.90;;;;;;4904619;29;20020;-90
2021/12/22 05:14:02;;;;;;;21.67;10.23;;;-3.00;99.90;;;;;;4891324;29;20032;-91
2021/12/22 05:16:28;;;;;;;18.83;10.23;;;-3.00;99.90;;;;;;4904946;29;20029;-90
2021/12/22 05:18:58;;;;;;;21.48;12.23;;;-3.00;99.90;;;;;;4904525;29;20036;-91
2021/12/22 05:21:24;;;;;;;18.95;10.45;;;-3.00;99.90;;;;;;4903840;29;20022;-90
2021/12/22 05:23:55;;;;;;;20.05;11.10;;;-3.00;99.90;;;;;;4904064;29;20077;-91
2021/12/22 05:26:22;;;;;;;20.25;10.02;;;-3.00;99.90;;;;;;4904140;29;20029;-90
2021/12/22 05:28:48;;;;;;;18.00;10.35;;;-3.00;99.90;;;;;;4904835;29;20025;-90
2021/12/22 05:31:14;;;;;;;18.00;10.48;;;-3.00;99.90;;;;;;4903635;29;20084;-89
2021/12/22 05:33:41;;;;;;;20.63;11.23;;;-3.00;99.90;;;;;;4903054;29;20116;-90
2021/12/22 05:36:06;;;;;;;24.73;12.57;;;-3.00;99.90;;;;;;4903634;29;20428;-88
2021/12/22 05:38:35;;;;;;;20.40;10.45;;;-3.00;99.90;;;;;;4906112;29;20063;-92
2021/12/22 05:41:01;;;;;;;17.83;9.85;;;-3.00;99.90;;;;;;4909240;29;20471;-92
2021/12/22 05:43:28;;;;;;;19.38;10.45;;;-3.00;99.90;;;;;;4910097;29;20073;-92
2021/12/22 05:45:54;;;;;;;18.48;10.05;;;-3.00;99.90;;;;;;4911391;29;20364;-94
2021/12/22 05:48:20;;;;;;;20.80;11.35;;;-3.00;99.90;;;;;;4903447;29;20053;-92
2021/12/22 05:50:50;;;;;;;19.55;10.27;;;-3.00;99.90;;;;;;4902427;29;20080;-94
2021/12/22 05:53:16;;;;;;;21.02;10.60;;;-3.10;99.90;;;;;;4906322;29;20039;-93
2021/12/22 05:59:22;;;;;;;21.30;11.35;;;-3.00;99.90;;;;;;4874501;29;20043;-92
2021/12/22 06:01:48;;;;;;;17.15;9.50;;;-3.10;99.90;;;;;;4902159;29;20152;-93
2021/12/22 06:04:14;;;;;;;20.10;9.80;;;-3.10;99.90;;;;;;4900958;29;20056;-93
2021/12/22 06:06:42;;;;;;;20.55;9.80;;;-3.10;99.90;;;;;;4901155;29;20032;-94
2021/12/22 06:09:09;;;;;;;17.98;10.75;;;-3.00;99.90;;;;;;4900455;29;20024;-93
2021/12/22 06:11:34;;;;;;;18.42;9.68;;;-3.10;99.90;;;;;;4901269;29;20032;-94
2021/12/22 06:14:00;;;;;;;20.00;11.15;;;-3.10;99.90;;;;;;4901368;29;20028;-92
2021/12/22 06:16:27;;;;;;;17.30;9.98;;;-3.10;99.90;;;;;;4900448;29;20039;-93
2021/12/22 06:18:58;;;;;;;20.50;10.23;;;-3.10;99.90;;;;;;4900715;29;20032;-92
2021/12/22 06:21:24;;;;;;;18.58;9.23;;;-3.10;99.90;;;;;;4902868;29;20029;-91
2021/12/22 06:23:50;;;;;;;20.00;10.02;;;-3.10;99.90;;;;;;4905203;29;20036;-91
2021/12/22 06:26:16;;;;;;;19.15;10.07;;;-3.10;99.90;;;;;;4911020;29;20321;-94
2021/12/22 06:28:42;;;;;;;20.40;10.38;;;-3.10;99.90;;;;;;4905801;29;20084;-89
2021/12/22 06:31:07;;;;;;;20.42;11.00;;;-3.10;99.90;;;;;;4888487;29;20044;-90
2021/12/22 06:33:34;;;;;;;21.60;11.02;;;-3.20;99.90;;;;;;4884948;29;20029;-88
2021/12/22 06:36:01;;;;;;;21.25;10.73;;;-3.20;99.90;;;;;;4905411;29;20028;-90
2021/12/22 06:38:27;;;;;;;19.77;10.85;;;-3.20;99.90;;;;;;4906580;29;20033;-90
2021/12/22 06:40:53;;;;;;;18.58;9.55;;;-3.10;99.90;;;;;;4905920;29;20081;-89
2021/12/22 06:43:19;;;;;;;22.40;12.20;;;-3.10;99.90;;;;;;4908556;29;20036;-89
2021/12/22 06:45:44;;;;;;;21.00;11.02;;;-3.20;99.90;;;;;;4907501;29;20032;-89
2021/12/22 06:48:10;;;;;;;17.27;9.98;;;-3.20;99.90;;;;;;4902332;29;20017;-91
2021/12/22 06:50:36;;;;;;;21.90;10.68;;;-3.20;99.90;;;;;;4902765;29;20142;-90
2021/12/22 06:53:03;;;;;;;22.90;11.32;;;-3.20;99.90;;;;;;4903714;29;20021;-89
2021/12/22 06:55:30;;;;;;;19.83;10.75;;;-3.20;99.90;;;;;;4904330;29;20064;-90
2021/12/22 06:57:56;;;;;;;22.27;11.05;;;-3.20;99.90;;;;;;4903213;29;20495;-89
2021/12/22 07:00:22;;;;;;;23.50;11.60;;;-3.20;99.90;;;;;;4903144;29;20029;-91
2021/12/22 07:02:48;;;;;;;23.33;11.65;;;-3.20;99.90;;;;;;4901191;29;20064;-89
2021/12/22 07:05:14;;;;;;;24.60;11.95;;;-3.20;99.90;;;;;;4901652;29;20108;-90
2021/12/22 07:07:41;;;;;;;23.75;12.25;;;-3.20;99.90;;;;;;4901577;29;20044;-91
2021/12/22 07:10:10;;;;;;;22.77;11.15;;;-3.20;99.90;;;;;;4904101;29;20025;-87
2021/12/22 07:12:40;;;;;;;21.98;11.30;;;-3.30;99.90;;;;;;4906054;29;20029;-88
2021/12/22 07:15:09;;;;;;;19.40;12.02;;;-3.30;99.90;;;;;;4888808;29;20032;-89
2021/12/22 07:17:39;;;;;;;21.92;12.15;;;-3.30;99.90;;;;;;4906983;29;20068;-88
2021/12/22 07:20:05;;;;;;;22.58;11.27;;;-3.30;99.90;;;;;;4907306;29;20534;-89
2021/12/22 07:22:32;;;;;;;21.30;10.30;;;-3.30;99.90;;;;;;4907630;29;20021;-88
2021/12/22 07:24:58;;;;;;;21.65;10.43;;;-3.30;99.90;;;;;;4907368;29;20029;-88
2021/12/22 07:27:25;;;;;;;19.92;10.52;;;-3.30;99.90;;;;;;4890737;29;20048;-87
2021/12/22 07:29:53;;;;;;;20.02;10.48;;;-3.30;99.90;;;;;;4908573;29;20032;-90
2021/12/22 07:32:20;;;;;;;21.02;10.35;;;-3.30;99.90;;;;;;4907928;29;20542;-90
2021/12/22 07:35:18;;;;;;;18.23;9.38;;;-3.30;99.90;;;;;;4896786;29;20028;-89
2021/12/22 07:37:57;;;;;;;20.90;10.68;;;-3.30;99.90;;;;;;4883862;29;20088;-91
2021/12/22 07:40:24;;;;;;;19.10;9.88;;;-3.30;99.90;;;;;;4903716;29;20065;-90
2021/12/22 07:42:51;;;;;;;22.30;10.05;;;-3.30;99.90;;;;;;4905353;29;20029;-89
2021/12/22 07:45:20;;;;;;;23.23;10.52;;;-3.30;99.90;;;;;;4902216;29;20024;-90
2021/12/22 07:47:48;;;;;;;21.08;9.85;;;-3.20;99.90;;;;;;4900709;29;20024;-90
2021/12/22 07:50:16;;;;;;;18.65;10.18;;;-3.30;99.90;;;;;;4901490;29;20036;-91
2021/12/22 07:52:45;;;;;;;20.88;11.10;;;-3.20;99.90;;;;;;4901558;29;20032;-90
2021/12/22 07:55:14;;;;;;;20.55;10.88;;;-3.20;99.90;;;;;;4901805;29;20096;-88
2021/12/22 07:57:40;;;;;;;22.00;10.68;;;-3.20;99.90;;;;;;4901190;29;20885;-90
2021/12/22 08:00:09;;;;;;;20.63;10.88;;;-3.20;99.90;;;;;;4901135;29;20033;-91
2021/12/22 08:02:37;;;;;;;24.15;11.27;;;-3.10;99.90;;;;;;4901091;29;20028;-89
2021/12/22 08:05:03;;;;;;;17.77;9.68;;;-3.10;99.90;;;;;;4901551;29;20035;-87
2021/12/22 08:07:29;;;;;;;20.23;10.63;;;-3.10;99.90;;;;;;4901975;29;20024;-89
2021/12/22 08:09:54;;;;;;;18.20;10.30;;;-3.00;99.90;;;;;;4901793;29;20021;-88
2021/12/22 08:12:20;;;;;;;21.38;9.43;;;-3.00;99.90;;;;;;4903369;29;20032;-89
2021/12/22 08:14:46;;;;;;;19.38;9.85;;;-3.00;99.90;;;;;;4901428;29;20024;-89
2021/12/22 08:17:13;;;;;;;23.30;10.95;;;-2.90;99.90;;;;;;4900792;29;20032;-89
2021/12/22 08:19:40;;;;;;;20.42;10.25;;;-2.90;99.90;;;;;;4900736;29;20519;-91
2021/12/22 08:22:06;;;;;;;19.98;10.95;;;-2.80;99.90;;;;;;4900391;29;20025;-88
2021/12/22 08:24:32;;;;;;;18.35;10.52;;;-2.80;99.90;;;;;;4899682;29;20037;-92
2021/12/22 08:27:00;;;;;;;19.42;10.20;;;-2.70;99.90;;;;;;4899570;29;20159;-89
2021/12/22 08:29:26;;;;;;;19.00;10.40;;;-2.60;99.90;;;;;;4899638;29;20033;-89
2021/12/22 08:31:52;;;;;;;20.58;11.50;;;-2.60;99.90;;;;;;4896577;29;20455;-89
2021/12/22 08:34:24;;;;;;;18.58;10.57;;;-2.50;99.90;;;;;;4900145;29;20032;-89
2021/12/22 08:39:36;;;;;;;18.15;9.77;;;-2.40;99.90;;;;;;4895811;29;20055;-87
2021/12/22 08:42:02;;;;;;;20.52;10.45;;;-2.30;99.90;;;;;;4900416;29;20447;-91
2021/12/22 08:44:28;;;;;;;18.35;10.00;;;-2.30;99.90;;;;;;4903899;29;20056;-89
2021/12/22 08:46:55;;;;;;;17.48;9.68;;;-2.20;99.90;;;;;;4903367;29;20028;-90
2021/12/22 08:49:22;;;;;;;22.35;10.95;;;-2.10;99.90;;;;;;4912064;29;20072;-89
2021/12/22 08:51:49;;;;;;;20.85;11.00;;;-2.00;99.90;;;;;;4923714;29;20028;-88
2021/12/22 08:54:15;;;;;;;27.48;14.10;;;-1.90;99.90;;;;;;4922950;29;20029;-89
2021/12/22 08:56:42;;;;;;;23.65;12.57;;;-1.90;99.90;;;;;;4916398;29;20063;-85
2021/12/22 08:59:09;;;;;;;26.30;13.32;;;-1.80;99.90;;;;;;4915627;29;20097;-85
2021/12/22 09:01:34;;;;;;;22.80;13.45;;;-1.70;99.90;;;;;;4916101;29;20028;-88
2021/12/22 09:04:01;;;;;;;23.33;12.35;;;-1.60;99.90;;;;;;4907299;29;20467;-90
2021/12/22 09:06:27;;;;;;;23.95;13.25;;;-1.40;99.90;;;;;;4904681;29;20024;-89
2021/12/22 09:08:53;;;;;;;23.67;12.27;;;-1.20;99.90;;;;;;4904139;29;20029;-88
2021/12/22 09:11:20;;;;;;;21.67;11.85;;;-0.90;99.90;;;;;;4903021;29;20028;-90
2021/12/22 09:13:46;;;;;;;26.13;14.88;;;-0.70;99.90;;;;;;4902317;29;20029;-92
2021/12/22 09:16:12;;;;;;;29.08;14.55;;;-0.40;99.90;;;;;;4902178;29;20115;-91
2021/12/22 09:18:39;;;;;;;22.70;13.40;;;0.10;99.90;;;;;;4902232;29;20033;-90
2021/12/22 09:21:06;;;;;;;23.70;14.75;;;0.60;99.90;;;;;;4902532;29;20035;-89
2021/12/22 09:23:32;;;;;;;25.42;14.15;;;0.90;99.90;;;;;;4902784;29;20032;-89
2021/12/22 09:25:58;;;;;;;22.13;13.05;;;1.10;99.90;;;;;;4905546;29;20025;-89
2021/12/22 09:28:24;;;;;;;23.33;13.63;;;1.20;99.90;;;;;;4903204;29;20024;-91
2021/12/22 09:30:49;;;;;;;22.50;13.13;;;1.40;99.90;;;;;;4904516;29;20025;-88
2021/12/22 09:33:18;;;;;;;21.50;13.07;;;1.40;99.90;;;;;;4906063;29;20039;-89
2021/12/22 09:35:46;;;;;;;22.50;13.55;;;1.50;99.90;;;;;;4903360;29;20060;-89
2021/12/22 09:38:12;;;;;;;23.27;13.32;;;1.40;99.90;;;;;;4902412;29;20036;-86
2021/12/22 09:40:38;;;;;;;19.73;11.60;;;1.50;99.90;;;;;;4901836;29;20029;-89
2021/12/22 09:43:04;;;;;;;19.80;11.55;;;1.50;99.90;;;;;;4904302;29;20029;-89
2021/12/22 09:45:32;;;;;;;18.50;11.30;;;1.60;99.90;;;;;;4913611;29;20028;-85
2021/12/22 09:53:18;;;;;;;22.05;12.20;;;2.20;99.90;;;;;;4922321;29;20037;-86
2021/12/22 09:55:45;;;;;;;18.65;10.90;;;2.00;99.90;;;;;;4919769;29;20064;-86
2021/12/22 09:58:11;;;;;;;16.23;10.18;;;1.90;99.90;;;;;;4919108;29;20035;-86
2021/12/22 10:00:38;;;;;;;19.42;10.90;;;2.00;99.90;;;;;;4922308;29;20028;-89
2021/12/22 10:03:05;;;;;;;17.88;9.77;;;2.00;99.90;;;;;;4922217;29;20016;-90
2021/12/22 10:05:37;;;;;;;15.43;10.15;;;2.10;99.90;;;;;;4923396;29;20012;-92
2021/12/22 10:08:12;;;;;;;15.85;9.02;;;2.10;99.90;;;;;;4922914;29;20051;-90
2021/12/22 10:10:41;;;;;;;15.13;9.15;;;2.30;99.90;;;;;;4923317;29;20096;-89
2021/12/22 10:13:10;;;;;;;15.75;9.90;;;2.40;99.90;;;;;;4923199;29;20033;-89
2021/12/22 10:15:36;;;;;;;17.85;9.35;;;2.40;99.90;;;;;;4922232;29;20009;-90
2021/12/22 10:18:15;;;;;;;13.93;8.82;;;2.40;99.90;;;;;;4920245;29;20647;-91
2021/12/22 10:20:47;;;;;;;16.90;9.02;;;2.50;99.90;;;;;;4919605;29;20031;-89
2021/12/22 10:23:28;;;;;;;12.07;8.27;;;2.50;99.90;;;;;;4921401;29;20013;-89
2021/12/22 10:25:59;;;;;;;16.35;9.02;;;2.40;99.90;;;;;;4920153;29;20024;-92
2021/12/22 10:28:28;;;;;;;14.55;8.27;;;2.60;99.90;;;;;;4919844;29;20043;-90
2021/12/22 10:30:58;;;;;;;12.38;7.63;;;2.80;99.90;;;;;;4917156;29;20052;-91
2021/12/22 10:33:30;;;;;;;14.73;7.70;;;2.80;99.90;;;;;;4897832;29;20035;-89
2021/12/22 10:35:58;;;;;;;10.55;6.78;;;2.60;99.90;;;;;;4897836;29;20124;-93
2021/12/22 10:38:29;;;;;;;11.57;7.20;;;2.50;99.90;;;;;;4905045;29;20123;-92
2021/12/22 10:41:00;;;;;;;11.63;7.40;;;2.30;99.90;;;;;;4904502;29;20021;-91
2021/12/22 10:43:29;;;;;;;11.27;7.25;;;2.20;99.90;;;;;;4904029;29;20029;-90
2021/12/22 10:45:59;;;;;;;12.77;6.97;;;2.30;99.90;;;;;;4902548;29;20523;-91
2021/12/22 10:51:29;;;;;;;12.67;6.80;;;2.60;99.90;;;;;;4885422;29;20084;-91
2021/12/22 10:53:56;;;;;;;12.23;7.50;;;2.60;99.90;;;;;;4901700;29;20515;-90
2021/12/22 10:56:29;;;;;;;13.65;7.93;;;2.80;99.90;;;;;;4887491;29;20512;-95
2021/12/22 10:59:11;;;;;;;14.40;8.30;;;3.00;99.90;;;;;;4901834;29;20108;-91
2021/12/22 11:01:53;;;;;;;15.23;9.02;;;3.00;99.90;;;;;;4885521;29;20120;-88
2021/12/22 11:04:24;;;;;;;13.60;9.25;;;3.00;99.90;;;;;;4884637;29;20064;-89
2021/12/22 11:06:53;;;;;;;19.60;9.82;;;3.00;99.90;;;;;;4868665;29;20059;-90
2021/12/22 11:09:20;;;;;;;16.23;9.52;;;2.90;99.90;;;;;;4893992;29;20046;-91
2021/12/22 11:11:57;;;;;;;16.05;9.13;;;2.90;99.90;;;;;;4885579;29;20390;-90
2021/12/22 11:14:29;;;;;;;19.00;11.45;;;2.90;99.90;;;;;;4902515;29;20371;-91
2021/12/22 11:17:04;;;;;;;15.20;8.95;;;2.90;99.90;;;;;;4903239;29;20051;-94
2021/12/22 11:19:36;;;;;;;13.75;8.40;;;2.90;99.90;;;;;;4903918;29;20072;-89
2021/12/22 11:22:14;;;;;;;15.90;9.02;;;2.90;99.90;;;;;;4901835;29;20024;-88
2021/12/22 11:24:52;;;;;;;13.23;8.43;;;3.00;99.90;;;;;;4888993;29;20066;-90
2021/12/22 11:27:22;;;;;;;11.85;7.95;;;3.10;99.90;;;;;;4900450;29;20029;-88
2021/12/22 11:29:54;;;;;;;11.82;8.27;;;3.30;99.90;;;;;;4905633;29;20483;-92
2021/12/22 11:32:22;;;;;;;11.38;7.35;;;3.50;99.90;;;;;;4901368;29;20163;-92
2021/12/22 11:34:51;;;;;;;12.07;7.63;;;3.50;99.90;;;;;;4901662;29;20388;-90
2021/12/22 11:37:18;;;;;;;13.55;8.15;;;3.60;99.90;;;;;;4905138;29;20085;-89
2021/12/22 11:39:49;;;;;;;13.68;8.40;;;3.60;99.90;;;;;;4902381;29;20520;-94
2021/12/22 11:42:16;;;;;;;12.05;7.55;;;3.60;99.90;;;;;;4907037;29;20120;-93
2021/12/22 11:44:49;;;;;;;13.90;8.10;;;3.60;99.90;;;;;;4890095;29;20025;-91
2021/12/22 11:47:16;;;;;;;11.43;7.53;;;3.50;99.90;;;;;;4888364;29;20033;-91
2021/12/22 11:49:49;;;;;;;12.18;8.35;;;3.30;99.90;;;;;;4906913;29;20273;-89
2021/12/22 11:52:37;;;;;;;11.38;8.07;;;3.10;99.90;;;;;;4906009;29;20043;-92
2021/12/22 11:55:11;;;;;;;13.13;8.07;;;2.80;99.90;;;;;;4902673;29;20048;-91
2021/12/22 11:57:38;;;;;;;10.45;6.93;;;2.60;99.90;;;;;;4905308;29;20041;-90
2021/12/22 12:00:31;;;;;;;10.35;8.02;;;2.50;99.90;;;;;;4907881;29;20032;-89
2021/12/22 12:02:59;;;;;;;14.00;8.37;;;2.40;99.90;;;;;;4892647;29;20083;-89
2021/12/22 12:05:30;;;;;;;14.55;8.43;;;2.30;99.90;;;;;;4911948;29;20028;-89
2021/12/22 12:07:57;;;;;;;12.85;8.80;;;2.30;99.90;;;;;;4909795;29;20033;-89
2021/12/22 12:10:45;;;;;;;14.50;9.00;;;2.20;99.90;;;;;;4905481;29;20088;-89
2021/12/22 12:13:22;;;;;;;14.63;9.27;;;2.10;99.90;;;;;;4888667;29;20480;-88
2021/12/22 12:22:12;;;;;;;14.68;9.10;;;1.80;99.90;;;;;;4910559;29;20040;-88
2021/12/22 12:24:42;;;;;;;17.50;11.45;;;1.70;99.90;;;;;;4918589;29;20044;-90
2021/12/22 12:27:30;;;;;;;21.08;12.63;;;1.70;99.90;;;;;;4917262;29;20024;-86
2021/12/22 12:30:06;;;;;;;17.75;12.07;;;1.50;99.90;;;;;;4912329;29;20438;-88
2021/12/22 12:32:59;;;;;;;23.45;14.18;;;1.40;99.90;;;;;;4906108;29;20064;-90
2021/12/22 12:35:28;;;;;;;20.50;12.27;;;1.30;99.90;;;;;;4894865;29;20539;-91
2021/12/22 12:38:09;;;;;;;22.92;12.93;;;1.20;99.90;;;;;;4891372;29;20504;-91
2021/12/22 12:41:05;;;;;;;17.27;11.55;;;1.20;99.90;;;;;;4907589;29;20471;-90
2021/12/22 12:43:40;;;;;;;18.50;10.60;;;1.20;99.90;;;;;;4896493;29;20049;-91
2021/12/22 12:46:25;;;;;;;15.15;9.85;;;1.20;99.90;;;;;;4906369;29;20072;-89
2021/12/22 12:48:53;;;;;;;15.98;9.95;;;1.20;99.90;;;;;;4905963;29;20076;-90
2021/12/22 12:51:34;;;;;;;13.48;9.00;;;1.20;99.90;;;;;;4905685;29;20037;-90
2021/12/22 12:54:03;;;;;;;14.05;8.65;;;1.10;99.90;;;;;;4896016;29;20089;-89
2021/12/22 12:56:39;;;;;;;13.65;7.90;;;1.10;99.90;;;;;;4905155;29;20136;-90
2021/12/22 12:59:08;;;;;;;13.35;7.93;;;1.00;99.90;;;;;;4904418;29;20486;-89
2021/12/22 13:01:46;;;;;;;13.57;8.43;;;1.00;99.90;;;;;;4905914;29;20035;-90
2021/12/22 13:04:23;;;;;;;10.20;7.47;;;1.10;99.90;;;;;;4905581;29;20055;-89
2021/12/22 13:06:50;;;;;;;12.60;8.82;;;1.10;99.90;;;;;;4908919;29;20032;-91
2021/12/22 13:09:28;;;;;;;15.85;9.75;;;1.10;99.90;;;;;;4921429;29;20035;-89
2021/12/22 13:12:10;;;;;;;18.48;11.52;;;1.10;99.90;;;;;;4921424;29;20053;-90
2021/12/22 13:17:30;;;;;;;14.73;9.27;;;1.20;99.90;;;;;;4917031;29;20435;-88
2021/12/22 13:19:57;;;;;;;16.88;11.10;;;1.20;99.90;;;;;;4913274;29;20037;-89
2021/12/22 13:22:27;;;;;;;19.17;12.40;;;1.30;99.90;;;;;;4912708;29;20024;-89
2021/12/22 13:25:27;;;;;;;18.02;11.20;;;1.20;99.90;;;;;;4908097;29;20113;-89
2021/12/22 13:28:05;;;;;;;18.13;11.90;;;1.20;99.90;;;;;;4903413;29;20040;-89
2021/12/22 13:30:35;;;;;;;16.20;10.32;;;1.10;99.90;;;;;;4903929;29;20100;-90
2021/12/22 13:33:06;;;;;;;14.98;9.10;;;1.10;99.90;;;;;;4899475;29;20020;-90
2021/12/22 13:35:44;;;;;;;12.68;8.77;;;1.20;99.90;;;;;;4902441;29;20119;-90
2021/12/22 13:38:28;;;;;;;14.63;9.20;;;1.40;99.90;;;;;;4902468;29;20048;-90
2021/12/22 13:40:55;;;;;;;;;;;1.50;99.90;;;;;;4884180;29;20088;-89
2021/12/22 13:43:34;;;;;;;12.80;8.23;;;1.40;99.90;;;;;;4890459;29;20281;-90
2021/12/22 13:46:11;;;;;;;13.32;8.52;;;1.30;99.90;;;;;;4903443;29;20044;-90
2021/12/22 13:48:50;;;;;;;12.35;7.75;;;1.20;99.90;;;;;;4906623;29;20045;-91
2021/12/22 13:51:36;;;;;;;14.80;8.98;;;1.20;99.90;;;;;;4903721;29;20060;-91
2021/12/22 13:54:11;;;;;;;13.07;8.77;;;1.10;99.90;;;;;;4903204;29;20025;-88
2021/12/22 13:56:38;;;;;;;13.35;8.18;;;1.00;99.90;;;;;;4903876;29;20040;-89